• Join FlightAware (Why Join?)
  • Login
  • US Flag 
01:27AM EDT


 

Airport Tracker/Info


-or-


 

Live Flight TrackerFlight Track Log ✈ JBU578 ✈ 04-Jul-2013 ✈ KSFO - KFLL

Flight Track Log - Related Links

Times and Time Zones

All times are in EDT time to prevent confusion due to time zone crossing. See the JBU578 flight status page for this flight to view local times or setup timezone preferences in your user account.

Time Position Orientation Groundspeed Altitude Reporting Facility
EDT Latitude Longitude Course Direction KTS MPH feet Rate Location/Type
06:54PM 37.6500 -122.3667 135° Southeast 163 188 1,100  Level Northern Cal TRACON
06:55PM 37.6833 -122.3833 338° Northwest 197 227 3,100 1,380 Climbing Northern Cal TRACON
06:56PM 37.6667 -122.4500 252° West 282 325 4,000 1,680 Climbing Northern Cal TRACON
06:57PM 37.4328 -122.3651 113° Southeast  Level FlightAware Approximate
06:57PM 37.6000 -122.4333 169° South 304 350 6,500  Level Northern Cal TRACON
06:58PM 37.3577 -122.2359 136° Southeast  Level FlightAware Approximate
06:58PM 37.5167 -122.3667 148° Southeast 313 360 8,900  Level Northern Cal TRACON
06:59PM 37.2711 -122.1171 133° Southeast  Level FlightAware Approximate
07:00PM 37.1825 -122.0031 135° Southeast  Level FlightAware Approximate
07:00PM 37.4667 -122.1500 106° East 363 418 11,600  Level Northern Cal TRACON
07:03PM 37.3978 -121.8756 107° East 372 428 15,300 1,560 Climbing Los Angeles Center
07:04PM 37.3658 -121.7383 106° East 387 445 16,900 1,560 Climbing Los Angeles Center
07:05PM 37.3314 -121.6064 108° East 396 456 18,500 1,560 Climbing Los Angeles Center
07:06PM 37.2981 -121.4633 106° East 412 474 20,200 1,380 Climbing Los Angeles Center
07:07PM 37.2606 -121.2922 105° East 422 486 21,500 1,140 Climbing Oakland Center
07:08PM 37.2244 -121.1489 108° East 428 493 22,700 1,140 Climbing Oakland Center
07:09PM 37.1872 -121.0036 108° East 433 498 23,900 1,020 Climbing Oakland Center
07:10PM 37.1422 -120.8569 111° Southeast 446 513 24,800 960 Climbing Oakland Center
07:11PM 37.1036 -120.6700 104° East 456 525 25,900 1,020 Climbing Oakland Center
07:12PM 37.0675 -120.5167 106° East 459 528 26,900 840 Climbing Oakland Center
07:13PM 37.0275 -120.3631 108° East 464 534 27,700 780 Climbing Oakland Center
07:14PM 36.9867 -120.2078 108° East 469 540 28,500 960 Climbing Oakland Center
07:15PM 36.9397 -120.0467 110° East 467 537 29,700 1,020 Climbing Oakland Center
07:16PM 36.8908 -119.8972 112° Southeast 464 534 30,600 600 Climbing Oakland Center
07:17PM 36.8425 -119.7481 112° Southeast 462 532 31,000 300 Climbing Oakland Center
07:18PM 36.7917 -119.6022 113° Southeast 459 528 31,300 600 Climbing Oakland Center
07:19PM 36.7372 -119.4592 115° Southeast 456 525 32,300 840 Climbing Oakland Center
07:20PM 36.6906 -119.3092 111° Southeast 468 539 33,100 840 Climbing Oakland Center
07:21PM 36.6803 -119.1525 95° East 459 528 34,100 780 Climbing Oakland Center
07:22PM 36.6675 -118.9917 96° East 464 534 34,800 420 Climbing Oakland Center
07:23PM 36.6553 -118.8331 95° East 462 532 35,000  Climbing Oakland Center
07:24PM 36.6456 -118.6778 94° East 455 524 34,900 -60 Descending Oakland Center
07:25PM 36.6358 -118.5211 94° East 454 522 34,900  Level Oakland Center
07:26PM 36.6256 -118.3669 95° East 459 528 35,000  Climbing Oakland Center
07:27PM 36.6003 -118.1808 100° East 464 534 35,000  Level Los Angeles Center
07:28PM 36.5700 -118.0244 104° East 455 524 35,000  Level Los Angeles Center
07:29PM 36.5417 -117.8725 103° East 458 527 35,000  Level Los Angeles Center
07:30PM 36.5114 -117.7192 104° East 459 528 35,000  Level Los Angeles Center
07:31PM 36.4825 -117.5642 103° East 460 529 35,000  Level Los Angeles Center
07:32PM 36.4575 -117.4389 104° East 464 534 35,000  Level Los Angeles Center
07:33PM 36.4192 -117.2447 104° East 474 545 35,000  Level Los Angeles Center
07:34PM 36.3886 -117.0825 103° East 480 552 35,000 -60 Level Los Angeles Center
07:35PM 36.3567 -116.9222 104° East 480 552 34,900 -60 Descending Los Angeles Center
07:36PM 36.3192 -116.7372 104° East 471 542 34,900  Level Los Angeles Center
07:37PM 36.2875 -116.5794 104° East 470 541 35,000  Climbing Los Angeles Center
07:38PM 36.2558 -116.4208 104° East 472 543 35,000 -60 Level Los Angeles Center
07:39PM 36.2222 -116.2619 105° East 474 545 34,900  Descending Los Angeles Center
07:40PM 36.1897 -116.1067 104° East 473 544 35,000  Climbing Los Angeles Center
07:41PM 36.1561 -115.9475 105° East 476 548 35,000  Level Los Angeles Center
07:43PM 36.1189 -115.7706 105° East 473 544 35,000  Level Los Angeles Center
07:44PM 36.0864 -115.6153 104° East 475 547 35,000  Level Los Angeles Center
07:45PM 36.0522 -115.4614 105° East 473 544 35,000  Level Los Angeles Center
07:46PM 36.0194 -115.3044 104° East 476 548 35,000  Level Los Angeles Center
07:47PM 35.9844 -115.1464 105° East 480 552 35,000  Level Los Angeles Center
07:48PM 35.9503 -114.9908 105° East 475 547 35,000  Level Los Angeles Center
07:49PM 35.9092 -114.8036 105° East 474 545 35,000  Level Los Angeles Center
07:50PM 35.8750 -114.6475 105° East 472 543 35,000  Level Los Angeles Center
07:51PM 35.8394 -114.4914 106° East 473 544 35,000  Level Los Angeles Center
07:52PM 35.8050 -114.3336 105° East 477 549 35,000  Level Los Angeles Center
07:53PM 35.7692 -114.1764 106° East 477 549 35,000  Level Los Angeles Center
07:54PM 35.7339 -114.0197 105° East 475 547 35,000  Level Los Angeles Center
07:55PM 35.6944 -113.8481 106° East 477 549 35,000  Level Los Angeles Center
07:56PM 35.6583 -113.6917 106° East 478 550 35,000  Level Los Angeles Center
07:57PM 35.6228 -113.5350 106° East 478 550 35,000  Level Los Angeles Center
07:58PM 35.5842 -113.3803 107° East 477 549 35,000  Level Los Angeles Center
07:59PM 35.5375 -113.2056 108° East 479 551 35,000  Level Los Angeles Center
08:00PM 35.4839 -113.0561 114° Southeast 480 552 35,000  Level Los Angeles Center
08:01PM 35.4297 -112.8950 112° Southeast 486 559 35,000  Level Los Angeles Center
08:02PM 35.3744 -112.7475 115° Southeast 479 551 35,000  Level Los Angeles Center
08:03PM 35.3281 -112.6122 113° Southeast 483 556 35,000  Level Los Angeles Center
08:04PM 35.2756 -112.4639 113° Southeast 482 555 35,000  Level Los Angeles Center
08:05PM 35.2128 -112.2861 113° Southeast 478 550 35,000  Level Los Angeles Center
08:06PM 35.1600 -112.1378 113° Southeast 477 549 35,000  Level Los Angeles Center
08:07PM 35.1061 -111.9900 114° Southeast 479 551 35,000  Level Los Angeles Center
08:08PM 35.0553 -111.8519 114° Southeast 481 554 35,000  Level Los Angeles Center
08:09PM 35.0003 -111.7017 114° Southeast 482 555 35,000 -60 Level Los Angeles Center
08:11PM 34.9169 -111.4689 114° Southeast 470 541 34,900  Descending Albuquerque Center
08:12PM 34.8622 -111.3208 114° Southeast 474 545 35,000  Climbing Albuquerque Center
08:13PM 34.8056 -111.1700 115° Southeast 484 557 35,000  Level Albuquerque Center
08:14PM 34.7508 -111.0203 114° Southeast 484 557 35,000 -60 Level Albuquerque Center
08:15PM 34.6967 -110.8739 114° Southeast 481 554 34,900  Descending Albuquerque Center
08:16PM 34.6389 -110.7164 114° Southeast 474 545 35,000  Climbing Albuquerque Center
08:17PM 34.5878 -110.5772 114° Southeast 472 543 35,000  Level Albuquerque Center
08:18PM 34.5342 -110.4361 115° Southeast 477 549 35,000  Level Albuquerque Center
08:19PM 34.4731 -110.2725 114° Southeast 478 550 35,000 -60 Level Albuquerque Center
08:20PM 34.4194 -110.1333 115° Southeast 477 549 34,900  Descending Albuquerque Center
08:21PM 34.3892 -109.9597 102° East 481 554 35,000  Climbing Albuquerque Center
08:22PM 34.4047 -109.8092 83° East 474 545 35,000  Level Albuquerque Center
08:23PM 34.4194 -109.6597 83° East 468 539 35,000  Level Albuquerque Center
08:24PM 34.4381 -109.4858 83° East 467 537 35,000  Level Albuquerque Center
08:25PM 34.4536 -109.3331 83° East 473 544 35,000  Level Albuquerque Center
08:26PM 34.4683 -109.1803 83° East 477 549 35,000  Level Albuquerque Center
08:27PM 34.4800 -109.0044 85° East 473 544 35,000  Level Albuquerque Center
08:28PM 34.4619 -108.8539 98° East 481 554 35,000  Level Albuquerque Center
08:29PM 34.4097 -108.7108 114° Southeast 487 560 35,000  Level Albuquerque Center
08:30PM 34.3458 -108.5433 115° Southeast 490 564 35,000 -60 Level Albuquerque Center
08:31PM 34.2869 -108.3889 115° Southeast 494 568 34,900 -60 Descending Albuquerque Center
08:32PM 34.2297 -108.2417 115° Southeast 490 564 34,900  Level Albuquerque Center
08:33PM 34.1800 -108.1097 114° Southeast 488 562 34,900  Level Albuquerque Center
08:34PM 34.1219 -107.9597 115° Southeast 491 565 35,000  Climbing Albuquerque Center
08:35PM 34.0639 -107.8094 115° Southeast 493 567 34,900 -60 Descending Albuquerque Center
08:36PM 34.0069 -107.6592 115° Southeast 493 567 34,900  Level Albuquerque Center
08:37PM 33.9364 -107.4797 115° Southeast 493 567 34,900  Level Albuquerque Center
08:38PM 33.8781 -107.3289 115° Southeast 495 570 34,900  Level Albuquerque Center
08:39PM 33.8181 -107.1781 116° Southeast 498 573 34,900  Level Albuquerque Center
08:40PM 33.7594 -107.0272 115° Southeast 498 573 34,900  Level Albuquerque Center
08:41PM 33.6994 -106.8750 115° Southeast 500 575 34,900  Level Albuquerque Center
08:42PM 33.6394 -106.7239 115° Southeast 501 577 34,900  Level Albuquerque Center
08:43PM 33.5781 -106.5722 116° Southeast 502 578 34,900  Level Albuquerque Center
08:44PM 33.5178 -106.4211 116° Southeast 502 578 34,900  Level Albuquerque Center
08:45PM 33.4561 -106.2689 116° Southeast 505 581 34,900  Level Albuquerque Center
08:46PM 33.3956 -106.1189 116° Southeast 502 578 34,900  Level Albuquerque Center
08:47PM 33.3347 -105.9689 116° Southeast 500 575 34,900  Level Albuquerque Center
08:48PM 33.2736 -105.8178 116° Southeast 503 579 34,900  Level Albuquerque Center
08:49PM 33.2108 -105.6667 116° Southeast 506 582 34,900  Level Albuquerque Center
08:50PM 33.1431 -105.5025 116° Southeast 502 578 34,900  Level Albuquerque Center
08:51PM 33.0817 -105.3556 116° Southeast 498 573 35,000  Climbing Albuquerque Center
08:52PM 33.0192 -105.2072 117° Southeast 501 577 35,000  Level Albuquerque Center
08:53PM 32.9531 -105.0483 116° Southeast 501 577 35,000  Level Albuquerque Center
08:54PM 32.8919 -104.9022 116° Southeast 498 573 35,000  Level Albuquerque Center
08:55PM 32.8308 -104.7553 116° Southeast 499 574 35,000  Level Albuquerque Center
08:56PM 32.7689 -104.6078 117° Southeast 499 574 35,000  Level Albuquerque Center
08:57PM 32.7069 -104.4617 117° Southeast 498 573 35,000 -60 Level Albuquerque Center
08:58PM 32.6411 -104.3064 117° Southeast 493 567 34,900  Descending Albuquerque Center
08:59PM 32.5794 -104.1611 117° Southeast 495 570 35,000  Climbing Albuquerque Center
09:00PM 32.5247 -104.0339 117° Southeast 492 566 35,000  Level Albuquerque Center
09:01PM 32.4664 -103.8911 116° Southeast 485 558 35,000  Level Albuquerque Center
09:02PM 32.4014 -103.7481 118° Southeast 492 566 35,000 -60 Level Albuquerque Center
09:03PM 32.3397 -103.6050 117° Southeast 490 564 34,900  Descending Albuquerque Center
09:04PM 32.2778 -103.4622 117° Southeast 491 565 35,000  Climbing Albuquerque Center
09:05PM 32.2136 -103.3197 118° Southeast 492 566 35,000  Level Albuquerque Center
09:06PM 32.1389 -103.1497 117° Southeast 491 565 35,000 -60 Level Albuquerque Center
09:07PM 32.0908 -103.0528 120° Southeast 491 565 34,900 -60 Descending Fort Worth Center
09:08PM 32.0303 -102.9094 116° Southeast 496 571 34,900  Level Fort Worth Center
09:09PM 31.9675 -102.7708 118° Southeast 488 562 34,900  Level Fort Worth Center
09:10PM 31.9047 -102.6278 117° Southeast 488 562 34,900  Level Fort Worth Center
09:11PM 31.8436 -102.4875 117° Southeast 488 562 34,900  Level Fort Worth Center
09:13PM 31.7144 -102.2006 118° Southeast 474 545 34,900  Level Houston Center
09:14PM 31.6508 -102.0578 118° Southeast 482 555 34,900  Level Houston Center
09:15PM 31.5869 -101.9169 118° Southeast 483 556 34,900  Level Houston Center
09:16PM 31.5222 -101.7775 119° Southeast 484 557 34,900  Level Houston Center
09:17PM 31.4569 -101.6375 119° Southeast 484 557 34,900  Level Houston Center
09:18PM 31.3919 -101.4992 119° Southeast 484 557 34,900  Level Houston Center
09:19PM 31.3275 -101.3589 118° Southeast 486 559 34,900  Level Houston Center
09:20PM 31.2647 -101.2197 118° Southeast 485 558 34,900  Level Houston Center
09:21PM 31.2403 -101.0683 101° East 477 549 34,900  Level Houston Center
09:22PM 31.2178 -100.9106 99° East 484 557 34,900  Level Houston Center
09:23PM 31.1950 -100.7569 100° East 481 554 34,900  Level Houston Center
09:24PM 31.1728 -100.6056 100° East 474 545 34,900  Level Houston Center
09:25PM 31.1506 -100.4525 100° East 476 548 34,900  Level Houston Center
09:26PM 31.1281 -100.2972 100° East 483 556 34,900  Level Houston Center
09:27PM 31.1053 -100.1397 100° East 490 564 35,000  Climbing Houston Center
09:28PM 31.0822 -99.9839 100° East 489 563 35,000 -60 Level Houston Center
09:29PM 31.0575 -99.8244 100° East 494 568 34,900 -60 Descending Houston Center
09:30PM 31.0342 -99.6656 100° East 494 568 34,900  Level Houston Center
09:31PM 31.0089 -99.5064 100° East 497 572 34,900  Level Houston Center
09:32PM 30.9828 -99.3436 101° East 508 585 34,900  Level Houston Center
09:33PM 30.9519 -99.1489 100° East 508 585 34,900  Level Houston Center
09:34PM 30.9283 -99.0000 100° East 508 585 34,900  Level Houston Center
09:35PM 30.9022 -98.8369 101° East 508 585 34,900  Level Houston Center
09:36PM 30.8750 -98.6722 101° East 515 593 35,000  Climbing Houston Center
09:37PM 30.8472 -98.5047 101° East 521 600 35,000  Level Houston Center
09:38PM 30.8197 -98.3367 101° East 524 603 35,000  Level Houston Center
09:39PM 30.7922 -98.1692 101° East 524 603 35,000  Level Houston Center
09:40PM 30.7636 -98.0028 101° East 522 601 35,000 -60 Level Houston Center
09:41PM 30.7356 -97.8364 101° East 523 602 34,900  Descending Houston Center
09:42PM 30.7067 -97.6689 101° East 527 606 35,000  Climbing Houston Center
09:43PM 30.6778 -97.5008 101° East 529 609 35,000  Level Houston Center
09:44PM 30.6486 -97.3336 101° East 530 610 35,000  Level Houston Center
09:45PM 30.6203 -97.1656 101° East 532 612 35,000  Level Houston Center
09:46PM 30.5911 -96.9983 101° East 529 609 35,000  Level Houston Center
09:47PM 30.5614 -96.8297 102° East 531 611 35,000  Level Houston Center
09:48PM 30.5306 -96.6625 102° East 529 609 35,000  Level Houston Center
09:49PM 30.5017 -96.4919 101° East 532 612 35,000  Level Houston Center
09:51PM 30.4717 -96.3247 102° East 527 606 35,000 -60 Level Houston Center
09:52PM 30.4408 -96.1594 102° East 523 602 34,900 -60 Descending Houston Center
09:53PM 30.4097 -96.0047 103° East 515 593 34,900  Level Houston Center
09:54PM 30.3819 -95.8411 101° East 516 594 35,000  Climbing Houston Center
09:55PM 30.3444 -95.6422 102° East 523 602 35,000  Level Houston Center
09:56PM 30.3122 -95.4772 103° East 524 603 35,000  Level Houston Center
09:57PM 30.2756 -95.3128 104° East 524 603 35,000  Level Houston Center
09:58PM 30.2403 -95.1497 104° East 521 600 35,000  Level Houston Center
09:59PM 30.2050 -94.9858 104° East 522 601 35,000 -60 Level Houston Center
10:00PM 30.1678 -94.8219 105° East 524 603 34,900  Descending Houston Center
10:01PM 30.1319 -94.6594 104° East 520 598 35,000  Climbing Houston Center
10:02PM 30.0953 -94.4983 105° East 518 596 35,000 -60 Level Houston Center
10:03PM 30.0594 -94.3400 105° East 520 598 34,900 -60 Descending Houston Center
10:04PM 30.0236 -94.1792 104° East 521 600 34,900  Level Houston Center
10:05PM 29.9861 -94.0181 105° East 523 602 34,900  Level Houston Center
10:06PM 29.9494 -93.8583 105° East 521 600 34,900  Level Houston Center
10:07PM 29.9119 -93.6983 105° East 524 603 34,900  Level Houston Center
10:08PM 29.8739 -93.5378 105° East 524 603 34,900  Level Houston Center
10:09PM 29.8356 -93.3769 105° East 524 603 34,900  Level Houston Center
10:10PM 29.7978 -93.2158 105° East 525 604 34,900  Level Houston Center
10:11PM 29.7614 -93.0567 105° East 520 598 34,900  Level Houston Center
10:12PM 29.7153 -92.8644 105° East 521 600 34,900  Level Houston Center
10:13PM 29.6775 -92.7061 105° East 518 596 34,900  Level Houston Center
10:14PM 29.6383 -92.5467 106° East 518 596 35,000  Climbing Houston Center
10:15PM 29.6008 -92.3883 105° East 515 593 34,900 -60 Descending Houston Center
10:16PM 29.5625 -92.2322 106° East 510 587 34,900  Level Houston Center
10:17PM 29.5233 -92.0750 106° East 514 592 34,900  Level Houston Center
10:18PM 29.4847 -91.9200 106° East 508 585 34,900  Level Houston Center
10:19PM 29.4464 -91.7617 106° East 514 592 35,000  Climbing Houston Center
10:20PM 29.4100 -91.6150 106° East 506 582 34,900  Descending Houston Center
10:21PM 29.3703 -91.4564 106° East 510 587 35,000  Climbing Houston Center
10:22PM 29.3311 -91.3033 106° East 510 587 34,900  Descending Houston Center
10:23PM 29.2908 -91.1444 106° East 512 589 35,000  Climbing Houston Center
10:24PM 29.2525 -90.9925 106° East 508 585 34,900 -60 Descending Houston Center
10:25PM 29.2136 -90.8406 106° East 500 575 34,900  Level Houston Center
10:26PM 29.1661 -90.6581 107° East 501 577 34,900  Level Houston Center
10:27PM 29.1261 -90.5050 107° East 503 579 34,900  Level Houston Center
10:28PM 29.0853 -90.3508 107° East 507 583 34,900  Level Houston Center
10:29PM 29.0442 -90.1947 107° East 513 590 34,900  Level Houston Center
10:30PM 29.0039 -90.0411 107° East 508 585 34,900  Level Houston Center
10:31PM 28.9644 -89.8894 107° East 504 580 34,900  Level Houston Center
10:32PM 28.9239 -89.7364 107° East 504 580 34,900  Level Houston Center
10:33PM 28.8833 -89.5850 107° East 503 579 34,900  Level Houston Center
10:34PM 28.8425 -89.4325 107° East 504 580 34,900  Level Houston Center
10:35PM 28.8014 -89.2819 107° East 498 573 34,900  Level Houston Center
10:36PM 28.7617 -89.1333 107° East 493 567 34,900  Level Houston Center
10:37PM 28.7211 -88.9850 107° East 491 565 34,900  Level Houston Center
10:38PM 28.6808 -88.8367 107° East 492 566 34,900  Level Houston Center
10:39PM 28.6400 -88.6886 107° East 492 566 34,900  Level Houston Center
10:40PM 28.5997 -88.5431 107° East 485 558 34,900  Level Houston Center
10:41PM 28.5589 -88.3956 107° East 488 562 34,900  Level Houston Center
10:42PM 28.5189 -88.2503 107° East 483 556 34,900  Level Houston Center
10:43PM 28.4747 -88.0953 108° East 484 557 35,000  Climbing Houston Center
10:44PM 28.4325 -87.9453 108° East 485 558 34,900 -60 Descending Houston Center
10:45PM 28.3922 -87.8014 108° East 482 555 34,900  Level Houston Center
10:46PM 28.3514 -87.6589 108° East 476 548 35,000  Climbing Houston Center
10:47PM 28.3111 -87.5175 108° East 473 544 34,900 -60 Descending Houston Center
10:48PM 28.2708 -87.3744 108° East 477 549 34,900  Level Houston Center
10:49PM 28.2292 -87.2319 108° East 478 550 35,000  Climbing Houston Center
10:50PM 28.1878 -87.0875 108° East 482 555 35,000 -60 Level Houston Center
10:51PM 28.1506 -86.9528 107° East 474 545 34,900 -60 Descending Jacksonville Center
10:52PM 28.1072 -86.8075 109° East 474 545 34,900  Level Jacksonville Center
10:53PM 28.0633 -86.6647 109° East 481 554 34,900  Level Jacksonville Center
10:54PM 28.0197 -86.5150 108° East 477 549 34,900  Level Jacksonville Center
10:55PM 27.9778 -86.3750 109° East 477 549 34,900  Level Jacksonville Center
10:56PM 27.9356 -86.2350 109° East 482 555 34,900  Level Jacksonville Center
10:57PM 27.8911 -86.0881 109° East 482 555 34,900  Level Jacksonville Center
10:59PM 27.7828 -85.7261 109° East 479 551 34,900  Level Miami Center
11:00PM 27.7436 -85.5825 107° East 480 552 34,900  Level Miami Center
11:01PM 27.7003 -85.4389 109° East 475 547 34,900  Level Miami Center
11:02PM 27.6586 -85.3000 109° East 474 545 34,900  Level Miami Center
11:03PM 27.6042 -85.1603 114° Southeast 504 580 34,900  Level Miami Center
11:04PM 27.5600 -85.0192 109° East 492 566 35,000  Climbing Miami Center
11:05PM 27.5200 -84.8783 108° East 482 555 34,900 -60 Descending Miami Center
11:06PM 27.4822 -84.7331 106° East 475 547 34,900  Level Miami Center
11:07PM 27.4506 -84.5836 103° East 475 547 34,900  Level Miami Center
11:08PM 27.4294 -84.4350 99° East 475 547 34,900  Level Miami Center
11:09PM 27.4017 -84.2861 102° East 480 552 34,900  Level Miami Center
11:10PM 27.3781 -84.1350 100° East 480 552 34,900  Level Miami Center
11:11PM 27.3458 -83.9858 104° East 485 558 34,900  Level Miami Center
11:12PM 27.3219 -83.8372 100° East 485 558 34,900  Level Miami Center
11:13PM 27.2892 -83.6906 104° East 485 558 34,900  Level Miami Center
11:14PM 27.2394 -83.5500 112° Southeast 485 558 34,900  Level Miami Center
11:15PM 27.1878 -83.4072 112° Southeast 485 558 34,900  Level Miami Center
11:16PM 27.1397 -83.2669 111° Southeast 485 558 34,900  Level Miami Center
11:17PM 27.0897 -83.1242 111° Southeast 485 558 34,900  Level Miami Center
11:18PM 27.0394 -82.9842 112° Southeast 485 558 34,900  Level Miami Center
11:19PM 26.9892 -82.8394 111° Southeast 485 558 34,900 -120 Level Miami Center
11:20PM 26.9364 -82.6992 113° Southeast 485 558 34,700 -900 Descending Miami Center
11:21PM 26.8875 -82.5619 112° Southeast 485 558 33,200 -1,560 Descending Miami Center
11:22PM 26.8347 -82.4175 112° Southeast 485 558 31,600 -1,620 Descending Miami Center
11:23PM 26.7836 -82.2778 112° Southeast 485 558 30,100 -1,620 Descending Miami Center
11:24PM 26.7306 -82.1358 113° Southeast 485 558 28,500 -1,620 Descending Miami Center
11:25PM 26.6789 -81.9989 113° Southeast 485 558 26,900 -1,620 Descending Miami Center
11:26PM 26.6278 -81.8478 111° Southeast 490 564 25,400 -1,560 Descending Miami Center
11:27PM 26.5722 -81.7039 113° Southeast 500 575 23,800 -1,620 Descending Miami Center
11:28PM 26.5167 -81.5508 112° Southeast 493 567 22,200 -1,620 Descending Miami Center
11:29PM 26.4725 -81.4283 112° Southeast 480 552 20,600 -1,920 Descending Miami Center
11:30PM 26.4244 -81.2967 112° Southeast 474 545 18,500 -2,040 Descending Miami Center
11:31PM 26.3722 -81.1603 113° Southeast 452 520 16,500 -2,040 Descending Miami Center
11:32PM 26.3297 -81.0428 112° Southeast 419 482 14,500 -2,040 Descending Miami Center
11:33PM 26.2847 -80.9347 115° Southeast 388 447 12,500 -1,920 Descending Miami Center
11:34PM 26.2517 -80.8433 112° Southeast 358 412 10,700 -1,200 Descending Miami Center
11:35PM 26.2228 -80.7567 110° East 334 384 10,100 -960 Descending Miami Center
11:36PM 26.1914 -80.6792 114° Southeast 295 339 8,800 -1,380 Descending Miami Center
11:37PM 26.1619 -80.6067 114° Southeast 270 311 7,300 -1,200 Descending Miami Center
11:38PM 26.1364 -80.5364 112° Southeast 256 295 6,400 -1,080 Descending Miami Center
11:39PM 26.1108 -80.4731 114° Southeast 167 192 5,100 -1,320 Descending Miami Center
11:40PM 26.0972 -80.4333 111° Southeast 187 215 3,900 -1,200 Descending Miami Center
11:41PM 26.0736 -80.3747 114° Southeast 172 198 2,700 -900 Descending Miami Center
11:43PM 26.0750 -80.3169 88° East 168 193 2,000 -540 Descending Miami Center
11:44PM 26.0739 -80.2686 91° East 171 197 1,700 -600 Descending Miami Center
11:45PM 26.0750 -80.2244 88° East 131 151 900 -720 Descending Miami Center
11:46PM 26.0739 -80.1828 92° East 132 152 300 -600 Descending Miami Center
11:48PM 26.0667 -80.1500 90° East  Level FlightAware Approximate